Time;durP1;ratioP1;P1;durP2;ratioP2;P2;SDS_P1;SDS_P2;PMS_P1;PMS_P2;Temp;Humidity;BMP_temperature;BMP_pressure;BME280_temperature;BME280_humidity;BME280_pressure;Samples;Min_cycle;Max_cycle;Signal;HPM_P1;HPM_P2
2021/06/23 00:00:27;;;;;;;;;;;;;;;17.64;100.00;95973.72;1040575;28;20289;-45
2021/06/23 00:00:57;;;;;;;;;;;;;;;17.59;100.00;95982.44;1036625;28;19905;-45
2021/06/23 00:01:27;;;;;;;;;;;;;;;17.58;100.00;95983.47;1036593;28;19909;-44
2021/06/23 00:01:57;;;;;;;;;;;;;;;17.57;100.00;95987.22;1036481;28;19933;-45
2021/06/23 00:02:28;;;;;;;;;;;;;;;17.63;100.00;95988.06;1036362;28;19910;-45
2021/06/23 00:02:58;;;;;;;;;;;;;;;17.61;100.00;95977.69;1040755;28;19925;-47
2021/06/23 00:03:28;;;;;;;;;;;;;;;17.59;100.00;95977.13;1036232;28;19917;-44
2021/06/23 00:03:59;;;;;;;;;;;;;;;17.59;100.00;95979.78;1036425;28;19913;-46
2021/06/23 00:04:29;;;;;;;;;;;;;;;17.58;100.00;95983.47;1036165;28;19912;-47
2021/06/23 00:05:00;;;;;;;;;;;;;;;17.65;100.00;95973.47;1036356;28;20323;-46
2021/06/23 00:05:30;;;;;;;;;;;;;;;17.59;100.00;95982.44;1036353;28;19912;-46
2021/06/23 00:06:00;;;;;;;;;;;;;;;17.53;100.00;95980.75;1040442;28;19916;-47
2021/06/23 00:06:31;;;;;;;;;;;;;;;17.50;100.00;95975.91;1040387;28;20352;-45
2021/06/23 00:07:01;;;;;;;;;;;;;;;17.49;100.00;95984.94;1040460;28;19901;-45
2021/06/23 00:07:31;;;;;;;;;;;;;;;17.48;100.00;95983.34;1040482;28;19912;-46
2021/06/23 00:08:02;;;;;;;;;;;;;;;17.49;100.00;95982.28;1040871;28;20373;-46
2021/06/23 00:08:32;;;;;;;;;;;;;;;17.43;100.00;95983.25;1040388;28;19905;-46
2021/06/23 00:09:04;;;;;;;;;;;;;;;17.41;100.00;95988.81;1040486;28;19908;-45
2021/06/23 00:09:34;;;;;;;;;;;;;;;17.39;100.00;95988.25;1040486;28;19996;-46
2021/06/23 00:10:05;;;;;;;;;;;;;;;17.39;100.00;95986.41;1040474;28;20353;-46
2021/06/23 00:10:35;;;;;;;;;;;;;;;17.34;100.00;95991.66;1040289;28;19912;-47
2021/06/23 00:11:05;;;;;;;;;;;;;;;17.33;100.00;95995.34;1040543;28;19935;-45
2021/06/23 00:11:44;;;;;;;;;;;;;;;17.29;100.00;95990.75;1040472;28;19905;-46
2021/06/23 00:12:16;;;;;;;;;;;;;;;17.30;100.00;95989.72;1040570;28;19912;-46
2021/06/23 00:12:46;;;;;;;;;;;;;;;17.20;100.00;95991.16;1040640;28;20319;-48
2021/06/23 00:13:18;;;;;;;;;;;;;;;17.26;100.00;95994.69;1040284;28;19948;-46
2021/06/23 00:13:50;;;;;;;;;;;;;;;17.27;100.00;95993.66;1040493;28;19908;-46
2021/06/23 00:14:20;;;;;;;;;;;;;;;17.25;100.00;96001.06;1036287;28;20374;-46
2021/06/23 00:14:50;;;;;;;;;;;;;;;17.25;100.00;95994.94;1032965;28;19910;-45
2021/06/23 00:15:21;;;;;;;;;;;;;;;17.26;100.00;96002.66;1036483;28;19959;-45
2021/06/23 00:15:52;;;;;;;;;;;;;;;17.27;100.00;96001.63;1036657;28;19909;-47
2021/06/23 00:16:22;;;;;;;;;;;;;;;17.21;100.00;95991.94;1040628;28;19909;-46
2021/06/23 00:16:52;;;;;;;;;;;;;;;17.25;100.00;96000.25;1040735;28;20354;-45
2021/06/23 00:17:23;;;;;;;;;;;;;;;17.24;100.00;95999.44;1040401;28;19932;-45
2021/06/23 00:17:53;;;;;;;;;;;;;;;17.25;100.00;96000.25;1040627;28;19960;-46
2021/06/23 00:18:23;;;;;;;;;;;;;;;17.22;100.00;95996.22;1036454;28;19910;-45
2021/06/23 00:18:53;;;;;;;;;;;;;;;17.24;100.00;95999.44;1036671;28;19909;-46
2021/06/23 00:19:24;;;;;;;;;;;;;;;17.21;100.00;95997.28;1040602;28;20314;-45
2021/06/23 00:19:54;;;;;;;;;;;;;;;17.20;100.00;96003.63;1040627;28;19909;-44
2021/06/23 00:20:25;;;;;;;;;;;;;;;17.20;100.00;95996.47;1040522;28;19916;-44
2021/06/23 00:20:55;;;;;;;;;;;;;;;17.21;100.00;96000.72;1040803;28;20316;-46
2021/06/23 00:21:25;;;;;;;;;;;;;;;17.23;100.00;95998.66;1040680;28;20015;-45
2021/06/23 00:21:56;;;;;;;;;;;;;;;17.22;100.00;96001.56;1040429;28;20278;-45
2021/06/23 00:22:26;;;;;;;;;;;;;;;17.32;100.00;95999.03;1040954;28;19909;-45
2021/06/23 00:22:56;;;;;;;;;;;;;;;17.32;100.00;95999.03;1041686;28;19916;-45
2021/06/23 00:23:27;;;;;;;;;;;;;;;17.45;100.00;95999.81;1041696;28;20019;-45
2021/06/23 00:23:57;;;;;;;;;;;;;;;17.40;100.00;95997.88;1041660;28;19940;-46
2021/06/23 00:24:27;;;;;;;;;;;;;;;17.39;100.00;96005.03;1041678;28;20281;-45
2021/06/23 00:24:58;;;;;;;;;;;;;;;17.46;100.00;96001.41;1041558;28;19909;-46
2021/06/23 00:25:29;;;;;;;;;;;;;;;17.50;100.00;95997.22;1041839;28;19962;-45
2021/06/23 00:25:59;;;;;;;;;;;;;;;17.50;100.00;96002.53;1041456;28;19909;-45
2021/06/23 00:26:33;;;;;;;;;;;;;;;17.48;100.00;96008.09;1041267;28;20277;-45
2021/06/23 00:27:04;;;;;;;;;;;;;;;17.52;100.00;96003.91;1041131;28;19964;-45
2021/06/23 00:27:34;;;;;;;;;;;;;;;17.53;100.00;96002.06;1041222;28;19901;-45
2021/06/23 00:28:04;;;;;;;;;;;;;;;17.50;100.00;96006.00;1041357;28;20274;-48
2021/06/23 00:28:35;;;;;;;;;;;;;;;17.48;100.00;96005.44;1041318;28;19907;-45
2021/06/23 00:29:05;;;;;;;;;;;;;;;17.50;100.00;96008.66;1041537;28;19908;-46
2021/06/23 00:29:36;;;;;;;;;;;;;;;17.58;100.00;96007.44;1041526;28;19999;-46
2021/06/23 00:30:06;;;;;;;;;;;;;;;17.57;100.00;96005.84;1041572;28;19901;-48
2021/06/23 00:30:36;;;;;;;;;;;;;;;17.56;100.00;96014.88;1037065;28;20281;-50
2021/06/23 00:31:07;;;;;;;;;;;;;;;17.57;100.00;96011.97;1037195;28;19901;-48
2021/06/23 00:31:37;;;;;;;;;;;;;;;17.55;100.00;96005.25;1037180;28;19996;-48
2021/06/23 00:32:10;;;;;;;;;;;;;;;17.52;100.00;96005.75;1037173;28;20289;-46
2021/06/23 00:32:40;;;;;;;;;;;;;;;17.54;100.00;96009.00;1041209;28;19905;-49
2021/06/23 00:33:20;;;;;;;;;;;;;;;17.62;100.00;96007.78;1041313;28;19905;-46
2021/06/23 00:33:51;;;;;;;;;;;;;;;17.54;100.00;96003.66;1041144;28;19912;-46
2021/06/23 00:34:21;;;;;;;;;;;;;;;17.53;100.00;96008.16;1034203;28;20008;-46
2021/06/23 00:34:52;;;;;;;;;;;;;;;17.53;100.00;96004.72;1037167;28;19905;-47
2021/06/23 00:35:22;;;;;;;;;;;;;;;17.54;100.00;96006.34;1032833;28;19906;-45
2021/06/23 00:35:52;;;;;;;;;;;;;;;17.58;100.00;96000.28;1033052;28;19906;-47
2021/06/23 00:36:23;;;;;;;;;;;;;;;17.63;100.00;96004.06;1041123;28;19948;-47
2021/06/23 00:36:53;;;;;;;;;;;;;;;17.58;100.00;96004.78;1041016;28;19905;-47
2021/06/23 00:37:23;;;;;;;;;;;;;;;17.62;100.00;96010.44;1041488;28;19937;-47
2021/06/23 00:37:54;;;;;;;;;;;;;;;17.55;100.00;96000.78;1041323;28;19909;-45
2021/06/23 00:38:24;;;;;;;;;;;;;;;17.54;100.00;96004.47;1041401;28;19905;-46
2021/06/23 00:38:54;;;;;;;;;;;;;;;17.54;100.00;95996.47;1041395;28;19905;-45
2021/06/23 00:39:24;;;;;;;;;;;;;;;17.52;100.00;95998.59;1041459;28;19905;-47
2021/06/23 00:39:55;;;;;;;;;;;;;;;17.50;100.00;95999.88;1041225;28;19955;-45
2021/06/23 00:40:25;;;;;;;;;;;;;;;17.44;100.00;95996.31;1041526;28;19905;-44
2021/06/23 00:40:55;;;;;;;;;;;;;;;17.48;100.00;95997.44;1041190;28;19909;-46
2021/06/23 00:41:26;;;;;;;;;;;;;;;17.49;100.00;96000.91;1041303;28;20322;-45
2021/06/23 00:41:56;;;;;;;;;;;;;;;17.44;100.00;95998.97;1040935;28;19905;-45
2021/06/23 00:42:27;;;;;;;;;;;;;;;17.45;100.00;95995.28;1041061;28;19963;-45
2021/06/23 00:42:57;;;;;;;;;;;;;;;17.40;100.00;95996.00;1040938;28;20739;-44
2021/06/23 00:43:27;;;;;;;;;;;;;;;17.38;100.00;95991.97;1041015;28;20360;-45
2021/06/23 00:43:57;;;;;;;;;;;;;;;17.42;100.00;95992.31;1040902;28;19954;-44
2021/06/23 00:44:28;;;;;;;;;;;;;;;17.47;100.00;95997.69;1040792;28;19913;-46
2021/06/23 00:44:59;;;;;;;;;;;;;;;17.50;100.00;95997.22;1032785;28;19917;-47
2021/06/23 00:45:29;;;;;;;;;;;;;;;17.51;100.00;95999.63;1028610;28;19906;-45
2021/06/23 00:45:59;;;;;;;;;;;;;;;17.56;100.00;95997.03;1028745;28;20343;-47
2021/06/23 00:46:30;;;;;;;;;;;;;;;17.51;100.00;96001.50;1028579;28;19906;-47
2021/06/23 00:47:03;;;;;;;;;;;;;;;17.50;100.00;96002.53;1028845;28;19902;-45
2021/06/23 00:47:33;;;;;;;;;;;;;;;17.57;100.00;95996.00;1032821;28;19996;-46
2021/06/23 00:48:08;;;;;;;;;;;;;;;17.56;100.00;95999.69;1033018;28;19906;-45
2021/06/23 00:48:38;;;;;;;;;;;;;;;17.56;100.00;95997.03;1034701;28;19913;-46
2021/06/23 00:49:08;;;;;;;;;;;;;;;17.53;100.00;95994.06;1041179;28;20293;-45
2021/06/23 00:49:39;;;;;;;;;;;;;;;17.51;100.00;95994.31;1037485;28;19905;-45
2021/06/23 00:50:09;;;;;;;;;;;;;;;17.48;100.00;95994.78;1041119;28;19905;-45
2021/06/23 00:50:39;;;;;;;;;;;;;;;17.52;100.00;95992.44;1041202;28;19905;-46
2021/06/23 00:51:10;;;;;;;;;;;;;;;17.49;100.00;95999.06;1041230;28;19912;-46
2021/06/23 00:51:40;;;;;;;;;;;;;;;17.43;100.00;95993.91;1041040;28;19905;-46
2021/06/23 00:52:11;;;;;;;;;;;;;;;17.40;100.00;95996.00;1041041;28;19995;-44
2021/06/23 00:52:41;;;;;;;;;;;;;;;17.37;100.00;95993.81;1041255;28;19996;-45
2021/06/23 00:53:11;;;;;;;;;;;;;;;17.35;100.00;95992.44;1041133;28;19944;-45
2021/06/23 00:53:41;;;;;;;;;;;;;;;17.32;100.00;95991.06;1040943;28;19966;-46
2021/06/23 00:54:12;;;;;;;;;;;;;;;17.26;100.00;95988.56;1040886;28;19901;-46
2021/06/23 00:54:49;;;;;;;;;;;;;;;17.25;100.00;95985.09;1037171;28;20271;-46
2021/06/23 00:55:22;;;;;;;;;;;;;;;17.38;100.00;95991.97;1041109;28;19991;-45
2021/06/23 00:55:53;;;;;;;;;;;;;;;17.38;100.00;95990.13;1041202;28;19984;-45
2021/06/23 00:56:28;;;;;;;;;;;;;;;17.33;100.00;95998.00;1041038;28;19901;-45
2021/06/23 00:56:58;;;;;;;;;;;;;;;17.34;100.00;95996.97;1038045;28;20055;-45
2021/06/23 00:57:28;;;;;;;;;;;;;;;17.37;100.00;95998.34;1041221;28;20015;-46
2021/06/23 00:57:59;;;;;;;;;;;;;;;17.36;100.00;95997.53;1036930;28;20019;-45
2021/06/23 00:58:29;;;;;;;;;;;;;;;17.40;100.00;96003.19;1037073;28;19901;-46
2021/06/23 00:58:59;;;;;;;;;;;;;;;17.42;100.00;95998.41;1033033;28;19952;-47
2021/06/23 00:59:32;;;;;;;;;;;;;;;17.43;100.00;95997.38;1028862;28;20406;-45
2021/06/23 01:00:02;;;;;;;;;;;;;;;17.42;100.00;95997.63;1029386;28;20394;-45
2021/06/23 01:00:34;;;;;;;;;;;;;;;17.52;100.00;96003.09;1033604;28;20009;-47
2021/06/23 01:01:04;;;;;;;;;;;;;;;17.62;100.00;95995.28;1041341;28;19901;-52
2021/06/23 01:01:37;;;;;;;;;;;;;;;17.68;100.00;96002.28;1041058;28;19958;-45
2021/06/23 01:02:08;;;;;;;;;;;;;;;17.63;100.00;96002.22;1040993;28;19980;-45
2021/06/23 01:02:38;;;;;;;;;;;;;;;17.63;100.00;96002.22;1041189;28;20353;-45
2021/06/23 01:03:08;;;;;;;;;;;;;;;17.63;100.00;96001.38;1041214;28;19988;-46
2021/06/23 01:03:39;;;;;;;;;;;;;;;17.58;100.00;96004.78;1041064;28;19901;-44
2021/06/23 01:04:09;;;;;;;;;;;;;;;17.58;100.00;96007.44;1041178;28;19978;-46
2021/06/23 01:04:39;;;;;;;;;;;;;;;17.51;100.00;96009.47;1040885;28;19988;-45
2021/06/23 01:05:10;;;;;;;;;;;;;;;17.47;100.00;96003.81;1037047;28;19943;-45
2021/06/23 01:05:40;;;;;;;;;;;;;;;17.33;100.00;96006.00;1036996;28;19908;-44
2021/06/23 01:06:11;;;;;;;;;;;;;;;17.36;100.00;96005.50;1037024;28;19924;-45
2021/06/23 01:06:41;;;;;;;;;;;;;;;17.37;100.00;96009.00;1036960;28;19901;-46
2021/06/23 01:07:11;;;;;;;;;;;;;;;17.39;100.00;96007.69;1041603;28;20270;-46
2021/06/23 01:07:42;;;;;;;;;;;;;;;17.40;100.00;96011.97;1040984;28;19909;-45
2021/06/23 01:08:12;;;;;;;;;;;;;;;17.40;100.00;96016.50;1036959;28;19924;-46
2021/06/23 01:08:42;;;;;;;;;;;;;;;17.37;100.00;96015.13;1037171;28;19902;-44
2021/06/23 01:09:13;;;;;;;;;;;;;;;17.37;100.00;96006.34;1037129;28;19962;-46
2021/06/23 01:09:43;;;;;;;;;;;;;;;17.35;100.00;96014.53;1033049;28;19908;-46
2021/06/23 01:10:13;;;;;;;;;;;;;;;17.46;100.00;96014.69;1033237;28;19902;-45
2021/06/23 01:10:44;;;;;;;;;;;;;;;17.48;100.00;96004.66;1028773;28;20398;-45
2021/06/23 01:11:14;;;;;;;;;;;;;;;17.45;100.00;96005.13;1029035;28;19953;-45
2021/06/23 01:12:03;;;;;;;;;;;;;;;17.50;100.00;96013.97;1037293;28;20277;-46
2021/06/23 01:12:46;;;;;;;;;;;;;;;17.47;100.00;96011.00;1041272;28;19916;-46
2021/06/23 01:13:36;;;;;;;;;;;;;;;17.49;100.00;96006.22;1041549;28;19944;-46
2021/06/23 01:14:06;;;;;;;;;;;;;;;17.37;100.00;96009.00;1041380;28;19955;-45
2021/06/23 01:14:37;;;;;;;;;;;;;;;17.40;100.00;96001.31;1036804;28;20377;-46
2021/06/23 01:15:07;;;;;;;;;;;;;;;17.65;100.00;96008.09;1036865;28;19925;-45
2021/06/23 01:15:38;;;;;;;;;;;;;;;17.63;100.00;96007.53;1032779;28;19992;-44
2021/06/23 01:16:09;;;;;;;;;;;;;;;17.63;100.00;96002.22;1033240;28;19945;-44
2021/06/23 01:16:39;;;;;;;;;;;;;;;17.63;100.00;96007.53;1041069;28;20372;-46
2021/06/23 01:17:10;;;;;;;;;;;;;;;17.67;100.00;96007.84;1037096;28;19951;-45
2021/06/23 01:17:40;;;;;;;;;;;;;;;17.71;100.00;96012.44;1041016;28;19971;-46
2021/06/23 01:18:11;;;;;;;;;;;;;;;17.67;100.00;96011.34;1041091;28;19939;-46
2021/06/23 01:18:41;;;;;;;;;;;;;;;17.61;100.00;96008.81;1037144;28;19931;-46
2021/06/23 01:19:12;;;;;;;;;;;;;;;17.65;100.00;96012.63;1041096;28;19924;-46
2021/06/23 01:19:43;;;;;;;;;;;;;;;17.62;100.00;96005.13;1041087;28;19913;-46
2021/06/23 01:20:13;;;;;;;;;;;;;;;17.59;100.00;96004.53;1037171;28;19909;-46
2021/06/23 01:20:44;;;;;;;;;;;;;;;17.60;100.00;96008.03;1041279;28;19909;-45
2021/06/23 01:21:15;;;;;;;;;;;;;;;17.65;100.00;96007.31;1041133;28;19940;-46
2021/06/23 01:21:45;;;;;;;;;;;;;;;17.66;100.00;96009.72;1037107;28;19909;-44
2021/06/23 01:22:18;;;;;;;;;;;;;;;17.66;100.00;96012.38;1036931;28;19910;-43
2021/06/23 01:22:48;;;;;;;;;;;;;;;17.46;100.00;96004.06;1037086;28;19956;-45
2021/06/23 01:23:19;;;;;;;;;;;;;;;17.46;100.00;95999.56;1037213;28;19913;-45
2021/06/23 01:23:49;;;;;;;;;;;;;;;17.56;100.00;96006.88;1041105;28;19955;-45
2021/06/23 01:24:19;;;;;;;;;;;;;;;17.57;100.00;96006.66;1041273;28;20386;-45
2021/06/23 01:24:50;;;;;;;;;;;;;;;17.68;100.00;96004.16;1040985;28;20330;-45
2021/06/23 01:25:20;;;;;;;;;;;;;;;17.64;100.00;96006.47;1041161;28;19908;-46
2021/06/23 01:25:50;;;;;;;;;;;;;;;17.63;100.00;96004.88;1041035;28;19908;-44
2021/06/23 01:26:21;;;;;;;;;;;;;;;17.67;100.00;96008.69;1041092;28;20388;-45
2021/06/23 01:26:51;;;;;;;;;;;;;;;17.64;100.00;96003.81;1041287;28;19901;-45
2021/06/23 01:27:21;;;;;;;;;;;;;;;17.68;100.00;96010.28;1041333;28;20388;-45
2021/06/23 01:27:51;;;;;;;;;;;;;;;17.70;100.00;96013.50;1041275;28;19901;-44
2021/06/23 01:28:22;;;;;;;;;;;;;;;17.67;100.00;96011.34;1041354;28;19901;-45
2021/06/23 01:28:52;;;;;;;;;;;;;;;17.59;100.00;96011.72;1041291;28;19901;-45
2021/06/23 01:29:22;;;;;;;;;;;;;;;17.56;100.00;96015.66;1041420;28;19901;-47
2021/06/23 01:29:53;;;;;;;;;;;;;;;17.51;100.00;96012.13;1041086;28;19940;-45
2021/06/23 01:30:23;;;;;;;;;;;;;;;17.50;100.00;96011.31;1040997;28;19901;-45
2021/06/23 01:30:54;;;;;;;;;;;;;;;17.44;100.00;96008.81;1041025;28;20463;-45
2021/06/23 01:31:25;;;;;;;;;;;;;;;17.42;100.00;96002.94;1037117;28;19901;-45
2021/06/23 01:31:55;;;;;;;;;;;;;;;17.40;100.00;96008.50;1037049;28;19927;-46
2021/06/23 01:32:25;;;;;;;;;;;;;;;17.53;100.00;96007.38;1037118;28;19965;-44
2021/06/23 01:32:55;;;;;;;;;;;;;;;17.47;100.00;96009.13;1037015;28;19909;-48
2021/06/23 01:33:26;;;;;;;;;;;;;;;17.45;100.00;96010.44;1041093;28;20293;-46
2021/06/23 01:33:56;;;;;;;;;;;;;;;17.55;100.00;96005.25;1040843;28;19916;-45
2021/06/23 01:34:26;;;;;;;;;;;;;;;17.55;100.00;96011.41;1040504;28;20356;-47
2021/06/23 01:34:57;;;;;;;;;;;;;;;17.49;100.00;96006.22;1041413;28;19909;-45
2021/06/23 01:35:29;;;;;;;;;;;;;;;17.49;100.00;96008.91;1040979;28;19909;-48
2021/06/23 01:35:59;;;;;;;;;;;;;;;17.55;100.00;96007.94;1041013;28;19915;-46
2021/06/23 01:36:30;;;;;;;;;;;;;;;17.62;100.00;96005.91;1041040;28;19958;-45
2021/06/23 01:37:01;;;;;;;;;;;;;;;17.59;100.00;96006.41;1040973;28;19909;-49
2021/06/23 01:37:31;;;;;;;;;;;;;;;17.58;100.00;96000.28;1041203;28;19916;-46
2021/06/23 01:38:02;;;;;;;;;;;;;;;17.55;100.00;96000.78;1041413;28;19938;-47
2021/06/23 01:38:32;;;;;;;;;;;;;;;17.60;100.00;96008.03;1041404;28;19909;-49
2021/06/23 01:39:02;;;;;;;;;;;;;;;17.75;100.00;96000.28;1041254;28;19916;-49
2021/06/23 01:39:33;;;;;;;;;;;;;;;17.70;100.00;96000.19;1041242;28;20324;-47
2021/06/23 01:40:04;;;;;;;;;;;;;;;17.62;100.00;95995.28;1041165;28;19915;-50
2021/06/23 01:40:34;;;;;;;;;;;;;;;17.80;100.00;95996.06;1041149;28;19970;-49
2021/06/23 01:41:05;;;;;;;;;;;;;;;17.76;100.00;95993.91;1041373;28;19913;-50
2021/06/23 01:41:35;;;;;;;;;;;;;;;17.76;100.00;96001.91;1041182;28;19978;-46
2021/06/23 01:42:05;;;;;;;;;;;;;;;17.61;100.00;95996.31;1041303;28;20317;-46
2021/06/23 01:42:36;;;;;;;;;;;;;;;17.53;100.00;95996.72;1041305;28;19916;-46
2021/06/23 01:43:09;;;;;;;;;;;;;;;17.55;100.00;95991.97;1040917;28;19908;-50
2021/06/23 01:43:42;;;;;;;;;;;;;;;17.69;100.00;95997.78;1040844;28;19948;-47
2021/06/23 01:44:12;;;;;;;;;;;;;;;17.75;100.00;95996.81;1040793;28;19913;-47
2021/06/23 01:44:42;;;;;;;;;;;;;;;17.57;100.00;95996.00;1040999;28;19916;-46
2021/06/23 01:45:13;;;;;;;;;;;;;;;17.52;100.00;95998.59;1036788;28;19913;-49
2021/06/23 01:45:45;;;;;;;;;;;;;;;17.65;100.00;96000.09;1036967;28;19913;-49
2021/06/23 01:46:16;;;;;;;;;;;;;;;17.64;100.00;95998.47;1041165;28;19909;-46
2021/06/23 01:46:46;;;;;;;;;;;;;;;17.61;100.00;95990.97;1040916;28;20270;-46
2021/06/23 01:47:16;;;;;;;;;;;;;;;17.81;100.00;95998.50;1041239;28;20309;-49
2021/06/23 01:47:47;;;;;;;;;;;;;;;17.87;100.00;95994.03;1041252;28;19975;-47
2021/06/23 01:48:20;;;;;;;;;;;;;;;17.85;100.00;95988.94;1041173;28;19915;-49
2021/06/23 01:48:51;;;;;;;;;;;;;;;17.83;100.00;95990.25;1041142;28;19909;-48
2021/06/23 01:49:23;;;;;;;;;;;;;;;17.77;100.00;95992.84;1041179;28;19970;-49
2021/06/23 01:49:54;;;;;;;;;;;;;;;17.73;100.00;95990.91;1041154;28;19963;-45
2021/06/23 01:50:24;;;;;;;;;;;;;;;17.57;100.00;95988.00;1041355;28;19913;-47
2021/06/23 01:50:55;;;;;;;;;;;;;;;17.51;100.00;95988.97;1041173;28;19909;-46
2021/06/23 01:51:25;;;;;;;;;;;;;;;17.46;100.00;95985.44;1041225;28;20362;-48
2021/06/23 01:51:55;;;;;;;;;;;;;;;17.41;100.00;95986.16;1041236;28;19909;-49
2021/06/23 01:52:26;;;;;;;;;;;;;;;17.37;100.00;95988.50;1041286;28;19916;-46
2021/06/23 01:52:56;;;;;;;;;;;;;;;17.38;100.00;95984.81;1041265;28;20273;-45
2021/06/23 01:53:27;;;;;;;;;;;;;;;17.43;100.00;95978.75;1041372;28;19909;-46
2021/06/23 01:53:57;;;;;;;;;;;;;;;17.43;100.00;95984.06;1040750;28;19909;-46
2021/06/23 01:54:28;;;;;;;;;;;;;;;17.58;100.00;95983.47;1040545;28;19919;-46
2021/06/23 01:54:58;;;;;;;;;;;;;;;17.53;100.00;95986.88;1040708;28;19909;-45
2021/06/23 01:55:29;;;;;;;;;;;;;;;17.59;100.00;95977.13;1040796;28;19969;-45
2021/06/23 01:55:59;;;;;;;;;;;;;;;17.55;100.00;95983.97;1040856;28;20247;-45
2021/06/23 01:56:30;;;;;;;;;;;;;;;17.55;100.00;95982.13;1040955;28;19909;-45
2021/06/23 01:57:00;;;;;;;;;;;;;;;17.51;100.00;95978.34;1041279;28;19901;-48
2021/06/23 01:57:30;;;;;;;;;;;;;;;17.52;100.00;95976.47;1040768;28;20230;-45
2021/06/23 01:58:05;;;;;;;;;;;;;;;17.60;100.00;95978.75;1041081;28;19913;-45
2021/06/23 01:58:40;;;;;;;;;;;;;;;17.67;100.00;95976.72;1041024;28;20250;-46
2021/06/23 01:59:10;;;;;;;;;;;;;;;17.59;100.00;95979.78;1040747;28;19909;-44
2021/06/23 01:59:40;;;;;;;;;;;;;;;17.80;100.00;95982.75;1036936;28;20293;-44
2021/06/23 02:00:11;;;;;;;;;;;;;;;17.85;100.00;95975.63;1037372;28;19986;-45
2021/06/23 02:00:54;;;;;;;;;;;;;;;17.95;100.00;95977.69;1036712;28;19933;-45
2021/06/23 02:01:42;;;;;;;;;;;;;;;18.01;100.00;95982.03;1040891;28;19908;-45
2021/06/23 02:02:28;;;;;;;;;;;;;;;18.02;100.00;95982.81;1040739;28;19924;-47
2021/06/23 02:02:58;;;;;;;;;;;;;;;18.02;100.00;95980.16;1041242;28;19936;-45
2021/06/23 02:03:31;;;;;;;;;;;;;;;18.04;100.00;95980.72;1041231;28;19909;-45
2021/06/23 02:04:06;;;;;;;;;;;;;;;17.88;100.00;95979.66;1040832;28;19916;-46
2021/06/23 02:04:48;;;;;;;;;;;;;;;17.99;100.00;95981.47;1040808;28;20027;-46
2021/06/23 02:05:25;;;;;;;;;;;;;;;17.86;100.00;95979.91;1040986;28;19959;-45
2021/06/23 02:06:05;;;;;;;;;;;;;;;17.72;100.00;95981.31;1041281;28;19909;-45
2021/06/23 02:06:48;;;;;;;;;;;;;;;17.64;100.00;95984.38;1041413;28;20011;-44
2021/06/23 02:07:25;;;;;;;;;;;;;;;17.84;100.00;95984.69;1041079;28;20329;-44
2021/06/23 02:07:58;;;;;;;;;;;;;;;17.82;100.00;95975.31;1040981;28;19909;-44
2021/06/23 02:08:28;;;;;;;;;;;;;;;17.90;100.00;95974.94;1040875;28;19985;-45
2021/06/23 02:09:02;;;;;;;;;;;;;;;17.97;100.00;95986.22;1040927;28;19913;-46
2021/06/23 02:09:35;;;;;;;;;;;;;;;18.03;100.00;95979.13;1040853;28;19980;-46
2021/06/23 02:10:08;;;;;;;;;;;;;;;17.97;100.00;95977.44;1040790;28;19909;-45
2021/06/23 02:10:46;;;;;;;;;;;;;;;17.74;100.00;95977.34;1040829;28;19909;-44
2021/06/23 02:11:31;;;;;;;;;;;;;;;17.66;100.00;95982.25;1040952;28;19909;-46
2021/06/23 02:12:04;;;;;;;;;;;;;;;17.64;100.00;95981.72;1041241;28;20353;-44
2021/06/23 02:12:40;;;;;;;;;;;;;;;17.72;100.00;95982.13;1041179;28;19975;-44
2021/06/23 02:13:20;;;;;;;;;;;;;;;17.58;100.00;95988.81;1041357;28;20443;-45
2021/06/23 02:13:57;;;;;;;;;;;;;;;17.64;100.00;95987.84;1036845;28;19916;-45
2021/06/23 02:14:36;;;;;;;;;;;;;;;17.66;100.00;95984.94;1036582;28;19980;-44
2021/06/23 02:15:06;;;;;;;;;;;;;;;17.72;100.00;95984.78;1039985;28;20286;-45
2021/06/23 02:15:36;;;;;;;;;;;;;;;17.65;100.00;95992.13;1041012;28;19909;-44
2021/06/23 02:16:10;;;;;;;;;;;;;;;17.66;100.00;95991.09;1041031;28;19909;-44
2021/06/23 02:16:41;;;;;;;;;;;;;;;17.65;100.00;95989.47;1040669;28;19916;-45
2021/06/23 02:17:12;;;;;;;;;;;;;;;17.67;100.00;95992.72;1036840;28;19913;-44
2021/06/23 02:17:42;;;;;;;;;;;;;;;17.59;100.00;95991.22;1036665;28;19913;-44
2021/06/23 02:18:12;;;;;;;;;;;;;;;17.48;100.00;95986.81;1037121;28;19993;-44
2021/06/23 02:18:43;;;;;;;;;;;;;;;17.56;100.00;95993.59;1036557;28;19931;-44
2021/06/23 02:19:13;;;;;;;;;;;;;;;17.65;100.00;95991.31;1036747;28;20321;-44
2021/06/23 02:19:47;;;;;;;;;;;;;;;17.69;100.00;95993.25;1036641;28;19909;-46
2021/06/23 02:20:18;;;;;;;;;;;;;;;17.63;100.00;95991.56;1037168;28;19909;-46
2021/06/23 02:20:52;;;;;;;;;;;;;;;17.60;100.00;95997.38;1040817;28;19909;-44
2021/06/23 02:21:22;;;;;;;;;;;;;;;17.36;100.00;95989.53;1040658;28;19971;-45
2021/06/23 02:21:52;;;;;;;;;;;;;;;17.36;100.00;95997.53;1040885;28;20359;-46
2021/06/23 02:22:23;;;;;;;;;;;;;;;17.22;100.00;95993.56;1040763;28;19941;-45
2021/06/23 02:22:53;;;;;;;;;;;;;;;17.35;100.00;95993.25;1040719;28;19909;-44
2021/06/23 02:23:24;;;;;;;;;;;;;;;17.36;100.00;95994.88;1036895;28;20404;-45
2021/06/23 02:23:54;;;;;;;;;;;;;;;17.34;100.00;95982.84;1040813;28;19959;-44
2021/06/23 02:24:26;;;;;;;;;;;;;;;17.37;100.00;95988.50;1040779;28;19913;-45
2021/06/23 02:25:06;;;;;;;;;;;;;;;17.38;100.00;95992.78;1040852;28;19916;-46
2021/06/23 02:25:37;;;;;;;;;;;;;;;17.33;100.00;95986.56;1041210;28;19909;-45
2021/06/23 02:26:07;;;;;;;;;;;;;;;17.26;100.00;95984.03;1041094;28;19912;-45
2021/06/23 02:26:37;;;;;;;;;;;;;;;17.42;100.00;95987.78;1041182;28;19909;-45
2021/06/23 02:27:08;;;;;;;;;;;;;;;17.36;100.00;95991.41;1041045;28;19909;-46
2021/06/23 02:27:39;;;;;;;;;;;;;;;17.37;100.00;95985.84;1040846;28;19909;-46
2021/06/23 02:28:09;;;;;;;;;;;;;;;17.43;100.00;95985.91;1036770;28;19916;-45
2021/06/23 02:28:40;;;;;;;;;;;;;;;17.53;100.00;95996.72;1036964;28;20052;-49
2021/06/23 02:29:11;;;;;;;;;;;;;;;17.53;100.00;95983.41;1033190;28;19997;-44
2021/06/23 02:29:41;;;;;;;;;;;;;;;17.52;100.00;95987.94;1028798;28;20430;-45
2021/06/23 02:30:12;;;;;;;;;;;;;;;17.47;100.00;95987.03;1032610;28;19938;-45
2021/06/23 02:30:42;;;;;;;;;;;;;;;17.47;100.00;95990.50;1032995;28;20478;-45
2021/06/23 02:31:13;;;;;;;;;;;;;;;17.44;100.00;95988.34;1037016;28;19919;-46
2021/06/23 02:31:43;;;;;;;;;;;;;;;17.48;100.00;95988.66;1040936;28;19909;-46
2021/06/23 02:32:14;;;;;;;;;;;;;;;17.34;100.00;95983.66;1040780;28;19909;-46
2021/06/23 02:32:44;;;;;;;;;;;;;;;17.33;100.00;95990.03;1040688;28;19952;-45
2021/06/23 02:33:15;;;;;;;;;;;;;;;17.35;100.00;95985.25;1036707;28;19916;-45
2021/06/23 02:33:45;;;;;;;;;;;;;;;17.30;100.00;95987.03;1036618;28;19916;-46
2021/06/23 02:34:15;;;;;;;;;;;;;;;17.22;100.00;95988.25;1036782;28;19916;-46
2021/06/23 02:34:48;;;;;;;;;;;;;;;17.22;100.00;95985.59;1040989;28;19915;-45
2021/06/23 02:35:18;;;;;;;;;;;;;;;16.96;100.00;95987.81;1040723;28;19908;-45
2021/06/23 02:35:49;;;;;;;;;;;;;;;16.95;100.00;95986.19;1040724;28;20003;-44
2021/06/23 02:36:20;;;;;;;;;;;;;;;16.96;100.00;95987.81;1040747;28;19916;-45
2021/06/23 02:36:50;;;;;;;;;;;;;;;16.98;100.00;95980.38;1040821;28;20313;-44
2021/06/23 02:37:20;;;;;;;;;;;;;;;17.04;100.00;95989.28;1040872;28;19945;-46
2021/06/23 02:37:51;;;;;;;;;;;;;;;17.10;100.00;95990.19;1040823;28;19909;-45
2021/06/23 02:38:22;;;;;;;;;;;;;;;17.21;100.00;95979.44;1041372;28;20313;-44
2021/06/23 02:38:52;;;;;;;;;;;;;;;17.23;100.00;95987.19;1041137;28;19909;-45
2021/06/23 02:39:23;;;;;;;;;;;;;;;17.27;100.00;95985.66;1041308;28;20345;-46
2021/06/23 02:39:53;;;;;;;;;;;;;;;17.32;100.00;95988.41;1041031;28;19909;-46
2021/06/23 02:40:23;;;;;;;;;;;;;;;17.46;100.00;95985.44;1037015;28;19976;-45
2021/06/23 02:40:54;;;;;;;;;;;;;;;17.49;100.00;95984.94;1032759;28;19968;-45
2021/06/23 02:41:24;;;;;;;;;;;;;;;17.44;100.00;95983.00;1032639;28;19956;-44